Bemidji Regional Airport
KBJI : now visible

Airfield :











YOU CAN JOIN US ON...

 
LOGIN :

Register | Disclaimer

   EN    FR    IT 

 









Legend :    VFR   Marginal VFR   IFR   Intensive IFR   Very Intensive IFR
Visi :
Ceiling :
>= 8 km
>= 3000ft
5 to 8 km
1000 to 3000 ft
1500m to 5 km
500 to 1000 ft
800 to 1500m
200 to 500 ft
< 800m
< 200 ft
Symbols :   Thunderstorms  Fog  Heavy snow  Heavy precipitations  Wind > 20 kt







- Airport Elevation : 1391 ft


KBJI - Bemidji Regional

CURRENT METAR :
  • 220156Z AUTO 09004KT 10SM BKN100 08/03 A3009 RMK AO2 LTG DSNT SE T00780033

EXPIRED METARs :
  • 220135Z AUTO 08005KT 10SM CLR 09/04 A3008 RMK AO2 LTG DSNT SE T00850035
  • 220115Z AUTO 09004KT 10SM BKN110 09/03 A3007 RMK AO2 LTG DSNT SE T00900033
  • 220055Z AUTO 10006KT 10SM OVC110 10/03 A3007 RMK AO2 T00960033
  • 220036Z AUTO 11007KT 10SM BKN095 BKN120 10/03 A3007 RMK AO2 T01000032
  • 220015Z AUTO 10005KT 10SM BKN120 11/03 A3007 RMK AO2 T01050032
  • 212355Z AUTO 11008KT 10SM SCT120 11/04 A3006 RMK AO2 T01070041 10147 20107
  • 212336Z AUTO 10008KT 10SM CLR 11/04 A3005 RMK AO2 T01110040
  • 212315Z AUTO 10008KT 10SM CLR 11/04 A3005 RMK AO2 T01140035

TAF KBJI
Valid from the 22 at 00:00 until the 23 at 00:00 UTC


212320Z 2200/2224 09008KT P6SM BKN120
FM220100 VRB05KT P6SM BKN120
FM221800 04008KT P6SM SCT120
KZMP FIR / North America



MET'MAP, your aeronautical weather chart ! - Copyright ORBIFLY December 2007 - Disclaimer

ORBIFLY MET'MAP TEAM :

Programming & Development : Alexandra Zaïnal
Concept & Development : Baudouin d'Aumeries
Co-Development & Prog : Marc-Olivier Méhu
Technical & hardware support : Manuel Goepfert

Contact : metmap@orbifly.com




SOURCES & CREDITS :

   NOAA       Earth
Advisory